Aviation Digital Data Service (ADDS)

Output produced by METARs form (0902 UTC 20 October 2017)
found at http://www.aviationweather.gov/adds/metars/
 
KSTF 200915Z AUTO 00000KT 7SM CLR 07/07 A3023 RMK AO2
KSTF 200855Z AUTO 00000KT 10SM CLR 07/07 A3023 RMK AO2
KSTF 200835Z AUTO 00000KT 7SM CLR 07/07 A3024 RMK AO2
KSTF 200815Z AUTO 00000KT 7SM CLR 08/07 A3024 RMK AO2
KSTF 200755Z AUTO 00000KT 5SM BR CLR 08/07 A3024 RMK AO2
KSTF 200735Z AUTO 00000KT 7SM CLR 08/08 A3024 RMK AO2
KSTF 200715Z AUTO 00000KT 10SM CLR 08/08 A3024 RMK AO2
KSTF 200655Z AUTO 00000KT 10SM CLR 08/08 A3024 RMK AO2
KSTF 200635Z AUTO 00000KT 10SM CLR 08/07 A3023 RMK AO2
KSTF 200615Z AUTO 00000KT 10SM CLR 09/08 A3023 RMK AO2
KSTF 200555Z AUTO 00000KT 10SM CLR 09/08 A3023 RMK AO2
KSTF 200535Z AUTO 00000KT 10SM CLR 10/09 A3023 RMK AO2
KSTF 200515Z AUTO 00000KT 10SM CLR 10/10 A3024 RMK AO2
KSTF 200455Z AUTO 00000KT 10SM CLR 10/10 A3024 RMK AO2
KSTF 200435Z AUTO 00000KT 10SM CLR 10/10 A3024 RMK AO2
KSTF 200415Z AUTO 00000KT 10SM CLR 10/10 A3024 RMK AO2
KSTF 200355Z AUTO 00000KT 10SM CLR 11/10 A3024 RMK AO2
KSTF 200335Z AUTO 00000KT 10SM CLR 11/11 A3024 RMK AO2
KSTF 200315Z AUTO 00000KT 10SM CLR 11/11 A3023 RMK AO2
KSTF 200255Z AUTO 00000KT 10SM CLR 12/11 A3023 RMK AO2
KSTF 200235Z AUTO 00000KT 10SM CLR 12/11 A3022 RMK AO2
KSTF 200215Z AUTO 00000KT 10SM CLR 13/11 A3022 RMK AO2
KSTF 200155Z AUTO 00000KT 10SM CLR 13/12 A3022 RMK AO2
KSTF 200135Z AUTO 00000KT 10SM CLR 13/12 A3022 RMK AO2
KSTF 200115Z AUTO 00000KT 10SM CLR 14/12 A3022 RMK AO2
KSTF 200055Z AUTO 00000KT 10SM CLR 14/12 A3022 RMK AO2
KSTF 200035Z AUTO 00000KT 10SM CLR 15/13 A3022 RMK AO2
KSTF 200015Z AUTO 00000KT 10SM CLR 16/13 A3022 RMK AO2
KSTF 192355Z AUTO 00000KT 10SM CLR 16/13 A3021 RMK AO2
KSTF 192335Z AUTO 00000KT 10SM CLR 18/13 A3021 RMK AO2
KSTF 192315Z AUTO 00000KT 10SM CLR 20/13 A3021 RMK AO2
KSTF 192255Z AUTO 00000KT 10SM CLR 22/14 A3021 RMK AO2
KSTF 192235Z AUTO 08003KT 10SM CLR 23/11 A3021 RMK AO2
KSTF 192215Z AUTO 08004KT 10SM CLR 25/11 A3021 RMK AO2
KSTF 192155Z AUTO 09004KT 10SM CLR 24/10 A3021 RMK AO2
KSTF 192135Z AUTO 00000KT 10SM CLR 25/10 A3021 RMK AO2
KSTF 192115Z AUTO 00000KT 10SM CLR 25/10 A3021 RMK AO2
KSTF 192055Z AUTO 00000KT 10SM CLR 25/09 A3021 RMK AO2
KSTF 192035Z AUTO 00000KT 10SM CLR 25/10 A3022 RMK AO2
KSTF 192015Z AUTO 00000KT 10SM CLR 25/10 A3022 RMK AO2
KSTF 191955Z AUTO 08004KT 10SM CLR 25/11 A3022 RMK AO2
KSTF 191935Z AUTO 09004KT 10SM CLR 25/11 A3022 RMK AO2
KSTF 191915Z AUTO 07004KT 10SM CLR 24/11 A3023 RMK AO2
KSTF 191855Z AUTO 00000KT 10SM CLR 23/11 A3025 RMK AO2
KSTF 191835Z AUTO 00000KT 10SM CLR 23/11 A3026 RMK AO2
KSTF 191815Z AUTO 10003KT 10SM CLR 23/11 A3027 RMK AO2
KSTF 191755Z AUTO 13004KT 10SM CLR 23/11 A3028 RMK AO2 P0001
KSTF 191735Z AUTO 15004KT 10SM CLR 22/11 A3029 RMK AO2 P0001
KSTF 191715Z AUTO 16003KT 10SM CLR 22/11 A3030 RMK AO2
KSTF 191655Z AUTO 13003KT 10SM CLR 21/10 A3030 RMK AO2
KSTF 191635Z AUTO 17004KT 10SM CLR 21/10 A3031 RMK AO2
KSTF 191615Z AUTO 12004KT 10SM CLR 20/10 A3031 RMK AO2
KSTF 191555Z AUTO 00000KT 10SM CLR 18/11 A3031 RMK AO2
KSTF 191535Z AUTO 16003KT 10SM CLR 17/11 A3031 RMK AO2
KSTF 191515Z AUTO 12003KT 10SM CLR 16/10 A3032 RMK AO2
KSTF 191455Z AUTO 14003KT 10SM CLR 16/11 A3032 RMK AO2
KSTF 191435Z AUTO 00000KT 10SM CLR 14/12 A3031 RMK AO2
KSTF 191415Z AUTO 00000KT 10SM CLR 12/12 A3031 RMK AO2
KSTF 191355Z AUTO 00000KT 10SM CLR 10/10 A3030 RMK AO2
KSTF 191335Z AUTO 00000KT 10SM CLR 08/08 A3029 RMK AO2
KSTF 191315Z AUTO 00000KT 10SM CLR 07/07 A3028 RMK AO2
KSTF 191255Z AUTO 00000KT 7SM CLR 05/05 A3027 RMK AO2
KSTF 191235Z AUTO 00000KT 7SM CLR 05/05 A3027 RMK AO2
KSTF 191215Z AUTO 00000KT 7SM CLR 06/06 A3027 RMK AO2
KSTF 191155Z AUTO 00000KT 10SM CLR 06/06 A3027 RMK AO2
KSTF 191135Z AUTO 00000KT 10SM CLR 06/06 A3026 RMK AO2
KSTF 191115Z AUTO 00000KT 7SM CLR 06/06 A3026 RMK AO2
KSTF 191055Z AUTO 00000KT 10SM CLR 05/05 A3025 RMK AO2
KSTF 191035Z AUTO 00000KT 10SM CLR 05/05 A3025 RMK AO2
KSTF 191015Z AUTO 00000KT 10SM CLR 06/05 A3024 RMK AO2
KSTF 190955Z AUTO 00000KT 10SM CLR 07/07 A3023 RMK AO2
KSTF 190935Z AUTO 00000KT 10SM CLR 07/06 A3022 RMK AO2
KSTF 190915Z AUTO 00000KT 10SM CLR 06/06 A3022 RMK AO2
KSTF 190855Z AUTO 00000KT 10SM CLR 06/06 A3023 RMK AO2
KSTF 190835Z AUTO 00000KT 10SM CLR 05/05 A3023 RMK AO2
KSTF 190815Z AUTO 00000KT 7SM CLR 05/05 A3023 RMK AO2
KSTF 190755Z AUTO 00000KT 10SM CLR 06/06 A3023 RMK AO2
KSTF 190735Z AUTO 00000KT 10SM CLR 06/06 A3022 RMK AO2
KSTF 190715Z AUTO 00000KT 10SM CLR 07/06 A3022 RMK AO2
KSTF 190655Z AUTO 00000KT 5SM BR CLR 06/06 A3022 RMK AO2
KSTF 190635Z AUTO 00000KT 4SM BR CLR 07/07 A3023 RMK AO2
KSTF 190615Z AUTO 00000KT 10SM CLR 07/06 A3023 RMK AO2
KSTF 190555Z AUTO 00000KT 10SM CLR 07/07 A3024 RMK AO2
KSTF 190535Z AUTO 00000KT 10SM CLR 07/06 A3024 RMK AO2
KSTF 190515Z AUTO 00000KT 10SM CLR 08/07 A3025 RMK AO2
KSTF 190455Z AUTO 00000KT 10SM CLR 08/07 A3025 RMK AO2
KSTF 190435Z AUTO 00000KT 10SM CLR 07/07 A3025 RMK AO2
KSTF 190415Z AUTO 00000KT 10SM CLR 08/07 A3025 RMK AO2
KSTF 190355Z AUTO 00000KT 10SM CLR 08/07 A3025 RMK AO2
KSTF 190335Z AUTO 00000KT 10SM CLR 08/07 A3025 RMK AO2
KSTF 190315Z AUTO 00000KT 10SM CLR 09/08 A3025 RMK AO2
KSTF 190255Z AUTO 00000KT 10SM CLR 10/09 A3025 RMK AO2
KSTF 190235Z AUTO 00000KT 10SM CLR 10/09 A3025 RMK AO2
KSTF 190215Z AUTO 00000KT 10SM CLR 11/09 A3025 RMK AO2
KSTF 190155Z AUTO 00000KT 10SM CLR 11/10 A3025 RMK AO2
KSTF 190135Z AUTO 00000KT 10SM CLR 11/10 A3025 RMK AO2
KSTF 190115Z AUTO 00000KT 10SM CLR 11/10 A3025 RMK AO2
KSTF 190055Z AUTO 00000KT 10SM CLR 12/10 A3024 RMK AO2
KSTF 190035Z AUTO 00000KT 10SM CLR 13/10 A3024 RMK AO2
KSTF 190015Z AUTO 00000KT 10SM CLR 13/10 A3023 RMK AO2
KSTF 182355Z AUTO 00000KT 10SM CLR 15/10 A3022 RMK AO2
KSTF 182335Z AUTO 00000KT 10SM CLR 16/11 A3021 RMK AO2
KSTF 182315Z AUTO 00000KT 10SM CLR 20/10 A3021 RMK AO2
KSTF 182255Z AUTO 11003KT 10SM CLR 22/08 A3021 RMK AO2
KSTF 182235Z AUTO 12003KT 10SM CLR 22/07 A3021 RMK AO2
KSTF 182215Z AUTO 12004KT 10SM CLR 22/06 A3020 RMK AO2
KSTF 182155Z AUTO 10003KT 10SM CLR 23/06 A3021 RMK AO2
KSTF 182135Z AUTO 11004KT 10SM CLR 23/06 A3021 RMK AO2
KSTF 182115Z AUTO 15004KT 10SM CLR 23/06 A3021 RMK AO2
KSTF 182055Z AUTO 16006KT 10SM CLR 23/06 A3022 RMK AO2
KSTF 182035Z AUTO 00000KT 10SM CLR 23/06 A3022 RMK AO2
KSTF 182015Z AUTO 12005KT 10SM CLR 23/06 A3022 RMK AO2
KSTF 181955Z AUTO 14003KT 10SM CLR 23/06 A3023 RMK AO2
KSTF 181935Z AUTO 06006KT 10SM CLR 22/06 A3023 RMK AO2
KSTF 181915Z AUTO 12007KT 10SM CLR 22/06 A3025 RMK AO2
KSTF 181855Z AUTO 20003KT 10SM CLR 22/07 A3025 RMK AO2
KSTF 181835Z AUTO 00000KT 10SM CLR 22/06 A3027 RMK AO2
KSTF 181815Z AUTO 00000KT 10SM CLR 21/07 A3028 RMK AO2
KSTF 181755Z AUTO 18006KT 10SM CLR 21/07 A3029 RMK AO2
KSTF 181735Z AUTO 18004KT 10SM CLR 21/08 A3030 RMK AO2
KSTF 181715Z AUTO 00000KT 10SM CLR 20/07 A3030 RMK AO2
KSTF 181655Z AUTO 16008KT 10SM CLR 19/08 A3031 RMK AO2
KSTF 181635Z AUTO 16007KT 132V192 10SM CLR 19/08 A3032 RMK AO2
KSTF 181615Z AUTO 14007KT 10SM CLR 18/08 A3032 RMK AO2
KSTF 181555Z AUTO 17008KT 10SM CLR 17/08 A3032 RMK AO2
KSTF 181535Z AUTO 14008KT 10SM CLR 16/09 A3032 RMK AO2
KSTF 181515Z AUTO 16006KT 10SM CLR 15/09 A3032 RMK AO2
KSTF 181455Z AUTO 16006KT 10SM CLR 14/10 A3032 RMK AO2
KSTF 181435Z AUTO 17004KT 10SM CLR 12/11 A3031 RMK AO2
KSTF 181415Z AUTO 16004KT 10SM CLR 12/11 A3030 RMK AO2
KSTF 181355Z AUTO 00000KT 10SM CLR 11/10 A3030 RMK AO2
KSTF 181335Z AUTO 00000KT 10SM CLR 09/09 A3029 RMK AO2
KSTF 181315Z AUTO 00000KT 10SM CLR 08/07 A3029 RMK AO2
KSTF 181255Z AUTO 00000KT 10SM CLR 06/06 A3028 RMK AO2
KSTF 181235Z AUTO 00000KT 7SM CLR 04/03 A3027 RMK AO2
KSTF 181215Z AUTO 00000KT 10SM CLR 05/05 A3027 RMK AO2 PWINO
KSTF 181155Z AUTO 00000KT 05/05 A3027 RMK AO2 PWINO
KSTF 181135Z AUTO 00000KT 7SM CLR 06/05 A3027 RMK AO2
KSTF 181115Z AUTO 00000KT 10SM CLR 06/06 A3027 RMK AO2
KSTF 181055Z AUTO 00000KT 10SM CLR 06/06 A3026 RMK AO2
KSTF 181035Z AUTO 00000KT 10SM CLR 06/06 A3025 RMK AO2
KSTF 181015Z AUTO 00000KT 10SM CLR 05/05 A3025 RMK AO2
KSTF 180955Z AUTO 00000KT 10SM CLR 06/05 A3025 RMK AO2
KSTF 180935Z AUTO 00000KT 10SM CLR 06/06 A3025 RMK AO2
KSTF 180915Z AUTO 00000KT 10SM CLR 06/06 A3025 RMK AO2
KSTF 180855Z AUTO 19003KT 10SM CLR 06/05 A3025 RMK AO2
KSTF 180835Z AUTO 19003KT 10SM CLR 06/05 A3025 RMK AO2
KSTF 180815Z AUTO 00000KT 10SM CLR 06/05 A3025 RMK AO2
KSTF 180755Z AUTO 00000KT 10SM CLR 07/06 A3025 RMK AO2
KSTF 180735Z AUTO 00000KT 10SM CLR 07/07 A3025 RMK AO2
KSTF 180715Z AUTO 10003KT 10SM CLR 08/07 A3025 RMK AO2
KSTF 180655Z AUTO 00000KT 10SM CLR 08/07 A3025 RMK AO2
KSTF 180635Z AUTO 00000KT 10SM CLR 10/09 A3025 RMK AO2
KSTF 180615Z AUTO 00000KT 10SM CLR 10/08 A3025 RMK AO2
KSTF 180555Z AUTO 00000KT 10SM CLR 10/09 A3025 RMK AO2
KSTF 180535Z AUTO 00000KT 10SM CLR 10/09 A3025 RMK AO2
KSTF 180515Z AUTO 09003KT 10SM CLR 10/09 A3025 RMK AO2
KSTF 180455Z AUTO 00000KT 10SM CLR 10/08 A3025 RMK AO2
KSTF 180435Z AUTO 00000KT 10SM CLR 10/09 A3025 RMK AO2
KSTF 180415Z AUTO 00000KT 10SM CLR 10/09 A3026 RMK AO2
KSTF 180355Z AUTO 00000KT 10SM CLR 10/09 A3026 RMK AO2
KSTF 180335Z AUTO 00000KT 10SM CLR 10/10 A3026 RMK AO2
KSTF 180315Z AUTO 00000KT 10SM CLR 10/09 A3026 RMK AO2
KSTF 180255Z AUTO 00000KT 10SM CLR 11/10 A3025 RMK AO2
KSTF 180235Z AUTO 00000KT 10SM CLR 11/10 A3025 RMK AO2
KSTF 180215Z AUTO 00000KT 10SM CLR 11/10 A3024 RMK AO2
KSTF 180155Z AUTO 00000KT 10SM CLR 11/10 A3023 RMK AO2
KSTF 180135Z AUTO 00000KT 10SM CLR 12/10 A3023 RMK AO2
KSTF 180115Z AUTO 00000KT 10SM CLR 12/11 A3023 RMK AO2
KSTF 180055Z AUTO 00000KT 10SM CLR 12/11 A3023 RMK AO2
KSTF 180035Z AUTO 00000KT 10SM CLR 13/11 A3022 RMK AO2
KSTF 180015Z AUTO 00000KT 10SM CLR 13/11 A3022 RMK AO2
KSTF 172355Z AUTO 00000KT 10SM CLR 15/11 A3022 RMK AO2
KSTF 172335Z AUTO 00000KT 10SM CLR 16/11 A3022 RMK AO2
KSTF 172315Z AUTO 00000KT 10SM CLR 19/10 A3022 RMK AO2
KSTF 172255Z AUTO 07005KT 10SM CLR 21/08 A3022 RMK AO2
KSTF 172235Z AUTO 09004KT 10SM CLR 21/08 A3022 RMK AO2
KSTF 172215Z AUTO 07006KT 10SM CLR 22/08 A3022 RMK AO2
KSTF 172155Z AUTO 08005KT 10SM CLR 22/08 A3022 RMK AO2
KSTF 172135Z AUTO 02004KT 10SM CLR 22/08 A3022 RMK AO2
KSTF 172115Z AUTO 04008KT 10SM CLR 22/08 A3022 RMK AO2
KSTF 172055Z AUTO 07003KT 10SM CLR 22/08 A3023 RMK AO2
KSTF 172035Z AUTO 03005KT 10SM CLR 22/09 A3023 RMK AO2
KSTF 172015Z AUTO 09003KT 10SM CLR 22/08 A3024 RMK AO2
KSTF 171955Z AUTO 08006KT 10SM CLR 22/08 A3025 RMK AO2
KSTF 171935Z AUTO 08005KT 10SM CLR 22/08 A3025 RMK AO2
KSTF 171915Z AUTO 05006KT 10SM CLR 22/09 A3026 RMK AO2
KSTF 171855Z AUTO 08005KT 10SM CLR 21/08 A3027 RMK AO2
KSTF 171835Z AUTO 07004KT 10SM CLR 21/08 A3028 RMK AO2
KSTF 171815Z AUTO 00000KT 10SM CLR 21/08 A3029 RMK AO2
KSTF 171755Z AUTO 11006KT 10SM CLR 20/08 A3030 RMK AO2
KSTF 171735Z AUTO 07008KT 10SM CLR 20/08 A3031 RMK AO2
KSTF 171715Z AUTO 00000KT 10SM CLR 18/07 A3032 RMK AO2
KSTF 171655Z AUTO 11006KT 10SM CLR 18/08 A3033 RMK AO2
KSTF 171635Z AUTO 13005KT 10SM CLR 17/07 A3033 RMK AO2
KSTF 171615Z AUTO 11004KT 10SM CLR 17/07 A3034 RMK AO2
KSTF 171555Z AUTO 12006KT 10SM CLR 16/07 A3034 RMK AO2
KSTF 171535Z AUTO 12004KT 10SM CLR 16/08 A3034 RMK AO2
KSTF 171515Z AUTO 12005KT 10SM CLR 15/08 A3034 RMK AO2
KSTF 171455Z AUTO 08009KT 10SM CLR 14/08 A3034 RMK AO2
KSTF 171435Z AUTO 10004KT 10SM CLR 13/08 A3033 RMK AO2
KSTF 171415Z AUTO 07009KT 10SM CLR 12/07 A3033 RMK AO2
KSTF 171355Z AUTO 07008KT 10SM CLR 11/07 A3033 RMK AO2 P0001
KSTF 171335Z AUTO 06007KT 10SM CLR 11/07 A3032 RMK AO2 P0001
KSTF 171315Z AUTO 07006KT 10SM CLR 10/07 A3031 RMK AO2 P0001
KSTF 171255Z AUTO 02003KT 10SM CLR 08/07 A3031 RMK AO2
KSTF 171235Z AUTO 00000KT 10SM CLR 07/06 A3031 RMK AO2
KSTF 171215Z AUTO 35003KT 10SM CLR 07/06 A3030 RMK AO2
KSTF 171155Z AUTO 33004KT 10SM CLR 07/06 A3030 RMK AO2
KSTF 171135Z AUTO 01003KT 10SM CLR 07/06 A3029 RMK AO2
KSTF 171115Z AUTO 34003KT 10SM CLR 07/06 A3029 RMK AO2
KSTF 171055Z AUTO 35003KT 10SM CLR 07/06 A3028 RMK AO2
KSTF 171035Z AUTO 34003KT 10SM CLR 07/06 A3028 RMK AO2
KSTF 171015Z AUTO 35003KT 10SM CLR 07/06 A3027 RMK AO2
KSTF 170955Z AUTO 35003KT 10SM CLR 07/06 A3027 RMK AO2 P0001
KSTF 170935Z AUTO 34003KT 10SM CLR 07/06 A3027 RMK AO2 P0001
KSTF 170915Z AUTO 33003KT 10SM CLR 07/06 A3027 RMK AO2 P0001